sensor_id;sensor_type;location;lat;lon;timestamp;pressure;altitude;pressure_sealevel;temperature
48894;BMP280;34710;35.798;139.446;2023-05-18T00:01:31;100640.79;;;31.87
48894;BMP280;34710;35.798;139.446;2023-05-18T00:03:57;100641.69;;;31.69
48894;BMP280;34710;35.798;139.446;2023-05-18T00:06:23;100645.92;;;32.46
48894;BMP280;34710;35.798;139.446;2023-05-18T00:08:48;100641.77;;;32.57
48894;BMP280;34710;35.798;139.446;2023-05-18T00:11:13;100638.66;;;33.32
48894;BMP280;34710;35.798;139.446;2023-05-18T00:13:39;100637.59;;;33.57
48894;BMP280;34710;35.798;139.446;2023-05-18T00:16:04;100635.77;;;34.03
48894;BMP280;34710;35.798;139.446;2023-05-18T00:18:29;100630.84;;;34.40
48894;BMP280;34710;35.798;139.446;2023-05-18T00:20:55;100630.57;;;34.19
48894;BMP280;34710;35.798;139.446;2023-05-18T00:23:20;100628.68;;;34.38
48894;BMP280;34710;35.798;139.446;2023-05-18T00:25:45;100632.85;;;33.16
48894;BMP280;34710;35.798;139.446;2023-05-18T00:28:10;100628.23;;;34.15
48894;BMP280;34710;35.798;139.446;2023-05-18T00:30:36;100627.22;;;33.15
48894;BMP280;34710;35.798;139.446;2023-05-18T00:33:01;100622.38;;;33.54
48894;BMP280;34710;35.798;139.446;2023-05-18T00:35:27;100622.16;;;34.45
48894;BMP280;34710;35.798;139.446;2023-05-18T00:37:52;100620.92;;;35.24
48894;BMP280;34710;35.798;139.446;2023-05-18T00:40:17;100620.79;;;34.15
48894;BMP280;34710;35.798;139.446;2023-05-18T00:42:42;100617.47;;;34.90
48894;BMP280;34710;35.798;139.446;2023-05-18T00:45:09;100612.65;;;34.99
48894;BMP280;34710;35.798;139.446;2023-05-18T00:47:34;100607.29;;;35.56
48894;BMP280;34710;35.798;139.446;2023-05-18T00:49:59;100603.59;;;35.55
48894;BMP280;34710;35.798;139.446;2023-05-18T00:52:25;100600.66;;;36.11
48894;BMP280;34710;35.798;139.446;2023-05-18T00:54:50;100598.48;;;35.78
48894;BMP280;34710;35.798;139.446;2023-05-18T00:57:15;100593.61;;;34.86
48894;BMP280;34710;35.798;139.446;2023-05-18T00:59:41;100591.95;;;34.95
48894;BMP280;34710;35.798;139.446;2023-05-18T01:02:06;100589.27;;;34.63
48894;BMP280;34710;35.798;139.446;2023-05-18T01:04:31;100588.76;;;35.67
48894;BMP280;34710;35.798;139.446;2023-05-18T01:06:57;100587.97;;;36.10
48894;BMP280;34710;35.798;139.446;2023-05-18T01:09:23;100585.87;;;35.56
48894;BMP280;34710;35.798;139.446;2023-05-18T01:11:56;100581.15;;;36.70
48894;BMP280;34710;35.798;139.446;2023-05-18T01:14:17;100574.65;;;34.65
48894;BMP280;34710;35.798;139.446;2023-05-18T01:16:44;100573.17;;;33.90
48894;BMP280;34710;35.798;139.446;2023-05-18T01:19:13;100572.84;;;33.65
48894;BMP280;34710;35.798;139.446;2023-05-18T01:21:48;100570.17;;;35.42
48894;BMP280;34710;35.798;139.446;2023-05-18T01:24:08;100565.14;;;34.56
48894;BMP280;34710;35.798;139.446;2023-05-18T01:26:23;100564.15;;;35.70
48894;BMP280;34710;35.798;139.446;2023-05-18T01:28:46;100561.85;;;34.74
48894;BMP280;34710;35.798;139.446;2023-05-18T01:31:13;100557.43;;;35.12
48894;BMP280;34710;35.798;139.446;2023-05-18T01:33:36;100556.97;;;35.95
48894;BMP280;34710;35.798;139.446;2023-05-18T01:36:02;100558.65;;;33.06
48894;BMP280;34710;35.798;139.446;2023-05-18T01:38:28;100550.91;;;34.07
48894;BMP280;34710;35.798;139.446;2023-05-18T01:40:59;100541.33;;;34.83
48894;BMP280;34710;35.798;139.446;2023-05-18T01:43:20;100540.17;;;34.81
48894;BMP280;34710;35.798;139.446;2023-05-18T01:45:47;100530.54;;;34.67
48894;BMP280;34710;35.798;139.446;2023-05-18T01:48:12;100530.30;;;33.99
48894;BMP280;34710;35.798;139.446;2023-05-18T01:50:38;100522.33;;;35.94
48894;BMP280;34710;35.798;139.446;2023-05-18T01:53:07;100521.98;;;33.54
48894;BMP280;34710;35.798;139.446;2023-05-18T01:55:30;100522.15;;;32.84
48894;BMP280;34710;35.798;139.446;2023-05-18T01:57:53;100517.11;;;33.30
48894;BMP280;34710;35.798;139.446;2023-05-18T02:00:18;100507.38;;;33.84
48894;BMP280;34710;35.798;139.446;2023-05-18T02:02:44;100498.91;;;34.47
48894;BMP280;34710;35.798;139.446;2023-05-18T02:05:09;100501.99;;;35.08
48894;BMP280;34710;35.798;139.446;2023-05-18T02:07:34;100500.07;;;34.20
48894;BMP280;34710;35.798;139.446;2023-05-18T02:10:00;100499.21;;;34.86
48894;BMP280;34710;35.798;139.446;2023-05-18T02:12:25;100496.80;;;34.06
48894;BMP280;34710;35.798;139.446;2023-05-18T02:14:51;100489.02;;;34.06
48894;BMP280;34710;35.798;139.446;2023-05-18T02:17:16;100489.51;;;34.62
48894;BMP280;34710;35.798;139.446;2023-05-18T02:19:42;100484.17;;;33.18
48894;BMP280;34710;35.798;139.446;2023-05-18T02:22:07;100476.21;;;33.17
48894;BMP280;34710;35.798;139.446;2023-05-18T02:24:33;100472.90;;;32.77
48894;BMP280;34710;35.798;139.446;2023-05-18T02:26:58;100468.88;;;33.40
48894;BMP280;34710;35.798;139.446;2023-05-18T02:29:24;100459.99;;;34.13
48894;BMP280;34710;35.798;139.446;2023-05-18T02:31:49;100464.90;;;33.59
48894;BMP280;34710;35.798;139.446;2023-05-18T02:34:14;100458.78;;;32.99
48894;BMP280;34710;35.798;139.446;2023-05-18T02:36:39;100458.56;;;32.61
48894;BMP280;34710;35.798;139.446;2023-05-18T02:39:05;100468.42;;;32.44
48894;BMP280;34710;35.798;139.446;2023-05-18T02:41:31;100461.51;;;32.08
48894;BMP280;34710;35.798;139.446;2023-05-18T02:43:56;100451.71;;;33.17
48894;BMP280;34710;35.798;139.446;2023-05-18T02:46:21;100453.17;;;32.15
48894;BMP280;34710;35.798;139.446;2023-05-18T02:48:47;100444.89;;;32.77
48894;BMP280;34710;35.798;139.446;2023-05-18T02:51:12;100431.21;;;34.68
48894;BMP280;34710;35.798;139.446;2023-05-18T02:53:37;100428.98;;;34.85
48894;BMP280;34710;35.798;139.446;2023-05-18T02:56:02;100426.71;;;34.22
48894;BMP280;34710;35.798;139.446;2023-05-18T02:58:28;100424.82;;;34.79
48894;BMP280;34710;35.798;139.446;2023-05-18T03:00:54;100431.88;;;34.32
48894;BMP280;34710;35.798;139.446;2023-05-18T03:03:19;100419.77;;;33.51
48894;BMP280;34710;35.798;139.446;2023-05-18T03:05:44;100415.01;;;33.93
48894;BMP280;34710;35.798;139.446;2023-05-18T03:08:09;100409.85;;;33.63
48894;BMP280;34710;35.798;139.446;2023-05-18T03:10:34;100405.65;;;33.84
48894;BMP280;34710;35.798;139.446;2023-05-18T03:12:59;100399.10;;;34.70
48894;BMP280;34710;35.798;139.446;2023-05-18T03:15:25;100400.34;;;34.16
48894;BMP280;34710;35.798;139.446;2023-05-18T03:17:50;100393.77;;;34.52
48894;BMP280;34710;35.798;139.446;2023-05-18T03:20:16;100395.66;;;34.61
48894;BMP280;34710;35.798;139.446;2023-05-18T03:22:40;100393.42;;;34.71
48894;BMP280;34710;35.798;139.446;2023-05-18T03:25:07;100396.61;;;34.47
48894;BMP280;34710;35.798;139.446;2023-05-18T03:27:33;100382.56;;;34.24
48894;BMP280;34710;35.798;139.446;2023-05-18T03:29:56;100378.98;;;33.60
48894;BMP280;34710;35.798;139.446;2023-05-18T03:32:22;100368.95;;;33.18
48894;BMP280;34710;35.798;139.446;2023-05-18T03:34:47;100362.11;;;34.32
48894;BMP280;34710;35.798;139.446;2023-05-18T03:37:12;100360.64;;;33.66
48894;BMP280;34710;35.798;139.446;2023-05-18T03:39:38;100362.17;;;33.93
48894;BMP280;34710;35.798;139.446;2023-05-18T03:42:04;100351.28;;;33.91
48894;BMP280;34710;35.798;139.446;2023-05-18T03:44:29;100351.49;;;34.51
48894;BMP280;34710;35.798;139.446;2023-05-18T03:46:54;100358.19;;;35.07
48894;BMP280;34710;35.798;139.446;2023-05-18T03:49:20;100352.38;;;34.21
48894;BMP280;34710;35.798;139.446;2023-05-18T03:51:45;100341.99;;;34.49
48894;BMP280;34710;35.798;139.446;2023-05-18T03:54:11;100344.16;;;34.26
48894;BMP280;34710;35.798;139.446;2023-05-18T03:56:36;100339.34;;;34.67
48894;BMP280;34710;35.798;139.446;2023-05-18T03:59:02;100334.32;;;33.87
48894;BMP280;34710;35.798;139.446;2023-05-18T04:01:27;100332.61;;;33.19
48894;BMP280;34710;35.798;139.446;2023-05-18T04:03:52;100331.85;;;33.32
48894;BMP280;34710;35.798;139.446;2023-05-18T04:06:18;100327.11;;;33.61
48894;BMP280;34710;35.798;139.446;2023-05-18T04:08:43;100323.88;;;34.26
48894;BMP280;34710;35.798;139.446;2023-05-18T04:11:08;100323.71;;;33.57
48894;BMP280;34710;35.798;139.446;2023-05-18T04:13:33;100325.18;;;32.93
48894;BMP280;34710;35.798;139.446;2023-05-18T04:15:59;100313.97;;;33.99
48894;BMP280;34710;35.798;139.446;2023-05-18T04:18:25;100310.38;;;34.29
48894;BMP280;34710;35.798;139.446;2023-05-18T04:20:51;100322.37;;;34.85
48894;BMP280;34710;35.798;139.446;2023-05-18T04:23:16;100311.04;;;33.52
48894;BMP280;34710;35.798;139.446;2023-05-18T04:25:42;100307.50;;;33.01
48894;BMP280;34710;35.798;139.446;2023-05-18T04:28:07;100318.73;;;32.46
48894;BMP280;34710;35.798;139.446;2023-05-18T04:30:32;100319.91;;;32.66
48894;BMP280;34710;35.798;139.446;2023-05-18T04:32:58;100315.82;;;32.87
48894;BMP280;34710;35.798;139.446;2023-05-18T04:35:24;100323.81;;;33.41
48894;BMP280;34710;35.798;139.446;2023-05-18T04:37:49;100321.27;;;32.80
48894;BMP280;34710;35.798;139.446;2023-05-18T04:40:15;100316.89;;;33.38
48894;BMP280;34710;35.798;139.446;2023-05-18T04:42:40;100311.43;;;33.42
48894;BMP280;34710;35.798;139.446;2023-05-18T04:45:06;100310.20;;;34.01
48894;BMP280;34710;35.798;139.446;2023-05-18T04:47:30;100301.13;;;33.51
48894;BMP280;34710;35.798;139.446;2023-05-18T04:49:57;100297.60;;;32.99
48894;BMP280;34710;35.798;139.446;2023-05-18T04:52:23;100291.54;;;33.97
48894;BMP280;34710;35.798;139.446;2023-05-18T04:54:48;100287.16;;;33.63
48894;BMP280;34710;35.798;139.446;2023-05-18T04:57:13;100280.36;;;33.18
48894;BMP280;34710;35.798;139.446;2023-05-18T04:59:39;100273.21;;;33.61
48894;BMP280;34710;35.798;139.446;2023-05-18T05:02:04;100271.57;;;33.16
48894;BMP280;34710;35.798;139.446;2023-05-18T05:04:29;100264.49;;;33.10
48894;BMP280;34710;35.798;139.446;2023-05-18T05:06:54;100264.23;;;33.20
48894;BMP280;34710;35.798;139.446;2023-05-18T05:09:19;100265.10;;;32.78
48894;BMP280;34710;35.798;139.446;2023-05-18T05:11:45;100261.17;;;32.75
48894;BMP280;34710;35.798;139.446;2023-05-18T05:14:10;100254.21;;;32.27
48894;BMP280;34710;35.798;139.446;2023-05-18T05:16:36;100250.68;;;32.77
48894;BMP280;34710;35.798;139.446;2023-05-18T05:19:01;100246.34;;;33.21
48894;BMP280;34710;35.798;139.446;2023-05-18T05:21:27;100251.79;;;32.61
48894;BMP280;34710;35.798;139.446;2023-05-18T05:23:53;100241.43;;;32.70
48894;BMP280;34710;35.798;139.446;2023-05-18T05:26:18;100240.90;;;32.79
48894;BMP280;34710;35.798;139.446;2023-05-18T05:28:43;100229.85;;;32.50
48894;BMP280;34710;35.798;139.446;2023-05-18T05:31:08;100224.88;;;32.85
48894;BMP280;34710;35.798;139.446;2023-05-18T05:33:34;100216.39;;;32.40
48894;BMP280;34710;35.798;139.446;2023-05-18T05:36:00;100215.57;;;32.15
48894;BMP280;34710;35.798;139.446;2023-05-18T05:38:25;100218.61;;;31.73
48894;BMP280;34710;35.798;139.446;2023-05-18T05:40:51;100206.11;;;32.09
48894;BMP280;34710;35.798;139.446;2023-05-18T05:43:16;100214.45;;;31.56
48894;BMP280;34710;35.798;139.446;2023-05-18T05:45:42;100197.95;;;32.13
48894;BMP280;34710;35.798;139.446;2023-05-18T05:48:08;100196.90;;;31.66
48894;BMP280;34710;35.798;139.446;2023-05-18T05:50:33;100199.27;;;32.16
48894;BMP280;34710;35.798;139.446;2023-05-18T05:52:58;100197.28;;;32.91
48894;BMP280;34710;35.798;139.446;2023-05-18T05:55:24;100194.61;;;33.55
48894;BMP280;34710;35.798;139.446;2023-05-18T05:57:49;100201.52;;;33.67
48894;BMP280;34710;35.798;139.446;2023-05-18T06:00:15;100197.63;;;32.82
48894;BMP280;34710;35.798;139.446;2023-05-18T06:02:40;100200.04;;;32.65
48894;BMP280;34710;35.798;139.446;2023-05-18T06:05:05;100213.53;;;31.83
48894;BMP280;34710;35.798;139.446;2023-05-18T06:07:30;100207.94;;;32.54
48894;BMP280;34710;35.798;139.446;2023-05-18T06:09:55;100197.31;;;32.47
48894;BMP280;34710;35.798;139.446;2023-05-18T06:12:21;100204.06;;;31.12
48894;BMP280;34710;35.798;139.446;2023-05-18T06:14:46;100195.11;;;31.65
48894;BMP280;34710;35.798;139.446;2023-05-18T06:17:11;100192.61;;;31.89
48894;BMP280;34710;35.798;139.446;2023-05-18T06:19:37;100195.13;;;32.68
48894;BMP280;34710;35.798;139.446;2023-05-18T06:22:03;100183.78;;;31.93
48894;BMP280;34710;35.798;139.446;2023-05-18T06:24:29;100180.19;;;32.79
48894;BMP280;34710;35.798;139.446;2023-05-18T06:26:54;100178.83;;;32.40
48894;BMP280;34710;35.798;139.446;2023-05-18T06:29:19;100176.18;;;32.49
48894;BMP280;34710;35.798;139.446;2023-05-18T06:31:45;100172.03;;;32.27
48894;BMP280;34710;35.798;139.446;2023-05-18T06:34:10;100174.45;;;31.77
48894;BMP280;34710;35.798;139.446;2023-05-18T06:36:36;100173.88;;;31.42
48894;BMP280;34710;35.798;139.446;2023-05-18T06:39:01;100169.13;;;32.93
48894;BMP280;34710;35.798;139.446;2023-05-18T06:41:26;100169.36;;;33.26
48894;BMP280;34710;35.798;139.446;2023-05-18T06:43:52;100169.29;;;33.25
48894;BMP280;34710;35.798;139.446;2023-05-18T06:46:21;100165.21;;;32.76
48894;BMP280;34710;35.798;139.446;2023-05-18T06:48:43;100170.64;;;32.04
48894;BMP280;34710;35.798;139.446;2023-05-18T06:51:08;100176.05;;;32.15
48894;BMP280;34710;35.798;139.446;2023-05-18T06:53:34;100168.92;;;32.80
48894;BMP280;34710;35.798;139.446;2023-05-18T06:55:58;100164.72;;;32.72
48894;BMP280;34710;35.798;139.446;2023-05-18T06:58:25;100162.58;;;31.50
48894;BMP280;34710;35.798;139.446;2023-05-18T07:00:50;100166.49;;;32.30
48894;BMP280;34710;35.798;139.446;2023-05-18T07:03:14;100164.18;;;31.51
48894;BMP280;34710;35.798;139.446;2023-05-18T07:05:40;100162.46;;;32.56
48894;BMP280;34710;35.798;139.446;2023-05-18T07:08:06;100160.75;;;32.17
48894;BMP280;34710;35.798;139.446;2023-05-18T07:10:31;100162.56;;;32.63
48894;BMP280;34710;35.798;139.446;2023-05-18T07:12:57;100159.98;;;32.57
48894;BMP280;34710;35.798;139.446;2023-05-18T07:15:22;100157.64;;;32.50
48894;BMP280;34710;35.798;139.446;2023-05-18T07:17:47;100157.80;;;32.64
48894;BMP280;34710;35.798;139.446;2023-05-18T07:20:13;100159.74;;;32.58
48894;BMP280;34710;35.798;139.446;2023-05-18T07:22:38;100160.85;;;31.68
48894;BMP280;34710;35.798;139.446;2023-05-18T07:25:03;100156.29;;;31.70
48894;BMP280;34710;35.798;139.446;2023-05-18T07:27:28;100162.36;;;32.38
48894;BMP280;34710;35.798;139.446;2023-05-18T07:29:53;100162.18;;;31.99
48894;BMP280;34710;35.798;139.446;2023-05-18T07:32:19;100160.11;;;32.14
48894;BMP280;34710;35.798;139.446;2023-05-18T07:34:44;100162.84;;;31.80
48894;BMP280;34710;35.798;139.446;2023-05-18T07:37:10;100164.70;;;31.31
48894;BMP280;34710;35.798;139.446;2023-05-18T07:39:35;100163.07;;;30.38
48894;BMP280;34710;35.798;139.446;2023-05-18T07:42:01;100168.63;;;30.26
48894;BMP280;34710;35.798;139.446;2023-05-18T07:44:27;100163.57;;;29.93
48894;BMP280;34710;35.798;139.446;2023-05-18T07:46:51;100164.75;;;29.98
48894;BMP280;34710;35.798;139.446;2023-05-18T07:49:16;100158.95;;;30.63
48894;BMP280;34710;35.798;139.446;2023-05-18T07:51:42;100161.58;;;30.70
48894;BMP280;34710;35.798;139.446;2023-05-18T07:54:07;100158.18;;;30.49
48894;BMP280;34710;35.798;139.446;2023-05-18T07:56:33;100158.84;;;30.11
48894;BMP280;34710;35.798;139.446;2023-05-18T07:58:59;100163.29;;;29.98
48894;BMP280;34710;35.798;139.446;2023-05-18T08:01:24;100165.38;;;29.86
48894;BMP280;34710;35.798;139.446;2023-05-18T08:03:49;100167.26;;;29.49
48894;BMP280;34710;35.798;139.446;2023-05-18T08:06:14;100162.78;;;29.17
48894;BMP280;34710;35.798;139.446;2023-05-18T08:08:39;100159.93;;;30.07
48894;BMP280;34710;35.798;139.446;2023-05-18T08:11:04;100165.94;;;29.63
48894;BMP280;34710;35.798;139.446;2023-05-18T08:13:29;100159.36;;;29.55
48894;BMP280;34710;35.798;139.446;2023-05-18T08:15:55;100158.30;;;29.34
48894;BMP280;34710;35.798;139.446;2023-05-18T08:18:21;100157.19;;;29.11
48894;BMP280;34710;35.798;139.446;2023-05-18T08:20:46;100150.66;;;29.01
48894;BMP280;34710;35.798;139.446;2023-05-18T08:23:12;100150.82;;;29.11
48894;BMP280;34710;35.798;139.446;2023-05-18T08:25:37;100154.54;;;29.12
48894;BMP280;34710;35.798;139.446;2023-05-18T08:28:03;100149.84;;;29.42
48894;BMP280;34710;35.798;139.446;2023-05-18T08:30:28;100155.31;;;29.28
48894;BMP280;34710;35.798;139.446;2023-05-18T08:32:54;100152.31;;;29.96
48894;BMP280;34710;35.798;139.446;2023-05-18T08:35:19;100153.68;;;29.09
48894;BMP280;34710;35.798;139.446;2023-05-18T08:37:44;100155.74;;;28.45
48894;BMP280;34710;35.798;139.446;2023-05-18T08:40:10;100156.49;;;28.60
48894;BMP280;34710;35.798;139.446;2023-05-18T08:42:42;100159.44;;;28.49
48894;BMP280;34710;35.798;139.446;2023-05-18T08:45:10;100168.21;;;27.87
48894;BMP280;34710;35.798;139.446;2023-05-18T08:47:26;100164.09;;;27.54
48894;BMP280;34710;35.798;139.446;2023-05-18T08:49:52;100162.58;;;27.60
48894;BMP280;34710;35.798;139.446;2023-05-18T08:52:18;100157.65;;;27.68
48894;BMP280;34710;35.798;139.446;2023-05-18T08:54:42;100164.25;;;27.87
48894;BMP280;34710;35.798;139.446;2023-05-18T08:57:09;100162.79;;;28.30
48894;BMP280;34710;35.798;139.446;2023-05-18T08:59:35;100166.33;;;27.67
48894;BMP280;34710;35.798;139.446;2023-05-18T09:01:58;100167.74;;;27.59
48894;BMP280;34710;35.798;139.446;2023-05-18T09:04:24;100162.83;;;27.80
48894;BMP280;34710;35.798;139.446;2023-05-18T09:06:50;100164.16;;;27.59
48894;BMP280;34710;35.798;139.446;2023-05-18T09:09:15;100165.04;;;27.38
48894;BMP280;34710;35.798;139.446;2023-05-18T09:11:40;100165.33;;;26.98
48894;BMP280;34710;35.798;139.446;2023-05-18T09:14:05;100163.25;;;27.36
48894;BMP280;34710;35.798;139.446;2023-05-18T09:16:31;100166.88;;;27.48
48894;BMP280;34710;35.798;139.446;2023-05-18T09:18:55;100164.05;;;27.12
48894;BMP280;34710;35.798;139.446;2023-05-18T09:21:21;100166.62;;;27.00
48894;BMP280;34710;35.798;139.446;2023-05-18T09:23:46;100176.28;;;26.80
48894;BMP280;34710;35.798;139.446;2023-05-18T09:26:11;100174.68;;;26.65
48894;BMP280;34710;35.798;139.446;2023-05-18T09:28:37;100176.23;;;26.23
48894;BMP280;34710;35.798;139.446;2023-05-18T09:31:02;100172.93;;;26.74
48894;BMP280;34710;35.798;139.446;2023-05-18T09:33:32;100172.65;;;27.20
48894;BMP280;34710;35.798;139.446;2023-05-18T09:35:52;100169.64;;;26.60
48894;BMP280;34710;35.798;139.446;2023-05-18T09:38:20;100176.30;;;26.87
48894;BMP280;34710;35.798;139.446;2023-05-18T09:40:45;100174.00;;;26.51
48894;BMP280;34710;35.798;139.446;2023-05-18T09:43:09;100174.93;;;27.31
48894;BMP280;34710;35.798;139.446;2023-05-18T09:45:34;100173.63;;;26.12
48894;BMP280;34710;35.798;139.446;2023-05-18T09:47:59;100172.76;;;26.57
48894;BMP280;34710;35.798;139.446;2023-05-18T09:50:25;100174.49;;;26.97
48894;BMP280;34710;35.798;139.446;2023-05-18T09:52:51;100174.61;;;26.49
48894;BMP280;34710;35.798;139.446;2023-05-18T09:55:17;100169.86;;;25.47
48894;BMP280;34710;35.798;139.446;2023-05-18T09:57:44;100164.78;;;26.43
48894;BMP280;34710;35.798;139.446;2023-05-18T10:00:08;100168.85;;;26.34
48894;BMP280;34710;35.798;139.446;2023-05-18T10:02:36;100175.56;;;25.90
48894;BMP280;34710;35.798;139.446;2023-05-18T10:04:58;100169.54;;;25.55
48894;BMP280;34710;35.798;139.446;2023-05-18T10:07:23;100165.02;;;25.61
48894;BMP280;34710;35.798;139.446;2023-05-18T10:12:15;100166.08;;;26.14
48894;BMP280;34710;35.798;139.446;2023-05-18T10:14:41;100166.74;;;26.36
48894;BMP280;34710;35.798;139.446;2023-05-18T10:17:05;100171.25;;;26.91
48894;BMP280;34710;35.798;139.446;2023-05-18T10:19:34;100171.02;;;26.96
48894;BMP280;34710;35.798;139.446;2023-05-18T10:21:56;100172.12;;;26.14
48894;BMP280;34710;35.798;139.446;2023-05-18T10:24:22;100175.14;;;25.30
48894;BMP280;34710;35.798;139.446;2023-05-18T10:26:49;100176.67;;;25.75
48894;BMP280;34710;35.798;139.446;2023-05-18T10:29:13;100177.93;;;25.87
48894;BMP280;34710;35.798;139.446;2023-05-18T10:31:38;100172.70;;;26.14
48894;BMP280;34710;35.798;139.446;2023-05-18T10:34:04;100180.50;;;26.25
48894;BMP280;34710;35.798;139.446;2023-05-18T10:36:30;100182.49;;;26.38
48894;BMP280;34710;35.798;139.446;2023-05-18T10:38:53;100182.87;;;25.35
48894;BMP280;34710;35.798;139.446;2023-05-18T10:41:21;100187.54;;;25.73
48894;BMP280;34710;35.798;139.446;2023-05-18T10:43:45;100186.34;;;25.75
48894;BMP280;34710;35.798;139.446;2023-05-18T10:46:09;100185.31;;;25.26
48894;BMP280;34710;35.798;139.446;2023-05-18T10:48:38;100191.49;;;25.30
48894;BMP280;34710;35.798;139.446;2023-05-18T10:51:00;100200.23;;;24.81
48894;BMP280;34710;35.798;139.446;2023-05-18T10:53:27;100197.96;;;25.34
48894;BMP280;34710;35.798;139.446;2023-05-18T10:55:52;100198.69;;;25.11
48894;BMP280;34710;35.798;139.446;2023-05-18T10:58:19;100193.28;;;25.33
48894;BMP280;34710;35.798;139.446;2023-05-18T11:00:47;100198.23;;;25.25
48894;BMP280;34710;35.798;139.446;2023-05-18T11:03:10;100199.11;;;24.79
48894;BMP280;34710;35.798;139.446;2023-05-18T11:05:33;100205.67;;;25.03
48894;BMP280;34710;35.798;139.446;2023-05-18T11:08:01;100200.89;;;24.65
48894;BMP280;34710;35.798;139.446;2023-05-18T11:10:24;100203.35;;;24.43
48894;BMP280;34710;35.798;139.446;2023-05-18T11:12:49;100201.92;;;25.01
48894;BMP280;34710;35.798;139.446;2023-05-18T11:15:15;100207.60;;;24.45
48894;BMP280;34710;35.798;139.446;2023-05-18T11:17:40;100205.57;;;24.37
48894;BMP280;34710;35.798;139.446;2023-05-18T11:20:14;100205.49;;;24.89
48894;BMP280;34710;35.798;139.446;2023-05-18T11:22:42;100205.66;;;24.90
48894;BMP280;34710;35.798;139.446;2023-05-18T11:24:57;100208.18;;;24.31
48894;BMP280;34710;35.798;139.446;2023-05-18T11:27:22;100206.60;;;24.49
48894;BMP280;34710;35.798;139.446;2023-05-18T11:29:48;100210.70;;;24.18
48894;BMP280;34710;35.798;139.446;2023-05-18T11:32:22;100214.72;;;23.94
48894;BMP280;34710;35.798;139.446;2023-05-18T11:34:42;100206.04;;;24.10
48894;BMP280;34710;35.798;139.446;2023-05-18T11:37:04;100209.94;;;24.43
48894;BMP280;34710;35.798;139.446;2023-05-18T11:39:29;100210.77;;;24.47
48894;BMP280;34710;35.798;139.446;2023-05-18T11:41:59;100203.23;;;24.16
48894;BMP280;34710;35.798;139.446;2023-05-18T11:44:21;100201.52;;;24.94
48894;BMP280;34710;35.798;139.446;2023-05-18T11:46:54;100208.27;;;24.65
48894;BMP280;34710;35.798;139.446;2023-05-18T11:49:12;100205.11;;;23.73
48894;BMP280;34710;35.798;139.446;2023-05-18T11:54:06;100213.36;;;24.83
48894;BMP280;34710;35.798;139.446;2023-05-18T11:56:31;100217.52;;;24.81
48894;BMP280;34710;35.798;139.446;2023-05-18T12:01:18;100218.80;;;24.89
48894;BMP280;34710;35.798;139.446;2023-05-18T12:03:44;100222.66;;;24.98
48894;BMP280;34710;35.798;139.446;2023-05-18T12:06:10;100228.58;;;25.38
48894;BMP280;34710;35.798;139.446;2023-05-18T12:08:36;100225.66;;;26.08
48894;BMP280;34710;35.798;139.446;2023-05-18T12:11:01;100219.23;;;25.20
48894;BMP280;34710;35.798;139.446;2023-05-18T12:13:27;100218.16;;;24.72
48894;BMP280;34710;35.798;139.446;2023-05-18T12:15:52;100215.89;;;25.42
48894;BMP280;34710;35.798;139.446;2023-05-18T12:18:19;100219.74;;;25.96
48894;BMP280;34710;35.798;139.446;2023-05-18T12:20:42;100226.91;;;24.64
48894;BMP280;34710;35.798;139.446;2023-05-18T12:23:08;100221.19;;;24.90
48894;BMP280;34710;35.798;139.446;2023-05-18T12:25:33;100221.06;;;25.69
48894;BMP280;34710;35.798;139.446;2023-05-18T12:27:59;100230.73;;;25.14
48894;BMP280;34710;35.798;139.446;2023-05-18T12:30:26;100233.91;;;24.64
48894;BMP280;34710;35.798;139.446;2023-05-18T12:32:51;100227.07;;;24.84
48894;BMP280;34710;35.798;139.446;2023-05-18T12:35:15;100218.28;;;25.23
48894;BMP280;34710;35.798;139.446;2023-05-18T12:37:45;100221.64;;;25.45
48894;BMP280;34710;35.798;139.446;2023-05-18T12:40:07;100213.06;;;25.94
48894;BMP280;34710;35.798;139.446;2023-05-18T12:42:32;100217.84;;;25.00
48894;BMP280;34710;35.798;139.446;2023-05-18T12:44:57;100220.19;;;25.11
48894;BMP280;34710;35.798;139.446;2023-05-18T12:47:23;100227.03;;;24.23
48894;BMP280;34710;35.798;139.446;2023-05-18T12:49:49;100227.24;;;24.59
48894;BMP280;34710;35.798;139.446;2023-05-18T12:52:15;100216.98;;;25.09
48894;BMP280;34710;35.798;139.446;2023-05-18T12:54:49;100215.81;;;25.24
48894;BMP280;34710;35.798;139.446;2023-05-18T12:57:06;100218.09;;;24.67
48894;BMP280;34710;35.798;139.446;2023-05-18T12:59:30;100217.29;;;26.11
48894;BMP280;34710;35.798;139.446;2023-05-18T13:01:55;100211.18;;;24.35
48894;BMP280;34710;35.798;139.446;2023-05-18T13:04:21;100206.68;;;25.56
48894;BMP280;34710;35.798;139.446;2023-05-18T13:06:47;100217.12;;;24.00
48894;BMP280;34710;35.798;139.446;2023-05-18T13:09:13;100227.61;;;24.78
48894;BMP280;34710;35.798;139.446;2023-05-18T13:11:37;100229.18;;;24.46
48894;BMP280;34710;35.798;139.446;2023-05-18T13:14:04;100229.64;;;24.75
48894;BMP280;34710;35.798;139.446;2023-05-18T13:16:28;100225.26;;;24.62
48894;BMP280;34710;35.798;139.446;2023-05-18T13:18:57;100227.10;;;23.52
48894;BMP280;34710;35.798;139.446;2023-05-18T13:21:18;100228.97;;;24.16
48894;BMP280;34710;35.798;139.446;2023-05-18T13:23:43;100228.97;;;24.34
48894;BMP280;34710;35.798;139.446;2023-05-18T13:26:08;100229.15;;;23.71
48894;BMP280;34710;35.798;139.446;2023-05-18T13:28:34;100230.47;;;23.67